Time;durP1;ratioP1;P1;durP2;ratioP2;P2;SDS_P1;SDS_P2;PMS_P1;PMS_P2;Temp;Humidity;BMP_temperature;BMP_pressure;BME280_temperature;BME280_humidity;BME280_pressure;Samples;Min_cycle;Max_cycle;Signal;HPM_P1;HPM_P2
2020/12/20 00:00:17;;;;;;;;;;;;;;;-0.11;100.00;96916.06;5042396;28;20032;-49
2020/12/20 00:02:49;;;;;;;;;;;;;;;-0.18;100.00;96925.00;4992458;28;19991;-54
2020/12/20 00:05:17;;;;;;;;;;;;;;;-0.13;100.00;96931.69;5035800;28;19955;-50
2020/12/20 00:07:44;;;;;;;;;;;;;;;-0.17;100.00;96937.06;5006874;28;20052;-51
2020/12/20 00:10:11;;;;;;;;;;;;;;;-0.14;100.00;96934.31;5042063;28;20485;-49
2020/12/20 00:12:38;;;;;;;;;;;;;;;0.01;100.00;96928.47;5009090;28;19969;-48
2020/12/20 00:15:05;;;;;;;;;;;;;;;-0.01;100.00;96927.69;5043353;28;20055;-48
2020/12/20 00:17:32;;;;;;;;;;;;;;;-0.09;100.00;96919.44;5037698;28;20443;-52
2020/12/20 00:20:00;;;;;;;;;;;;;;;-0.04;100.00;96923.47;5003288;28;20346;-48
2020/12/20 00:22:27;;;;;;;;;;;;;;;0.07;100.00;96920.44;5042047;28;20734;-48
2020/12/20 00:24:53;;;;;;;;;;;;;;;-0.10;100.00;96925.53;5003946;28;19957;-49
2020/12/20 00:27:20;;;;;;;;;;;;;;;-0.04;100.00;96922.63;5039649;28;19992;-49
2020/12/20 00:29:48;;;;;;;;;;;;;;;0.00;100.00;96929.41;5007953;28;19957;-50
2020/12/20 00:32:15;;;;;;;;;;;;;;;-0.26;100.00;96930.53;5047071;28;20043;-48
2020/12/20 00:34:42;;;;;;;;;;;;;;;-0.29;100.00;96922.88;5007913;28;19963;-49
2020/12/20 00:37:10;;;;;;;;;;;;;;;-0.37;100.00;96927.56;5033557;28;19982;-50
2020/12/20 00:39:36;;;;;;;;;;;;;;;-0.27;100.00;96928.84;5009796;28;19953;-49
2020/12/20 00:42:04;;;;;;;;;;;;;;;-0.12;100.00;96924.75;5044200;28;19943;-50
2020/12/20 00:44:31;;;;;;;;;;;;;;;-0.15;100.00;96922.28;4978136;28;19959;-50
2020/12/20 00:46:59;;;;;;;;;;;;;;;-0.27;100.00;96924.50;5043344;28;20435;-48
2020/12/20 00:49:25;;;;;;;;;;;;;;;-0.25;100.00;96921.84;5006519;28;20512;-50
2020/12/20 00:51:53;;;;;;;;;;;;;;;-0.20;100.00;96924.25;5028004;28;19954;-50
2020/12/20 00:54:21;;;;;;;;;;;;;;;-0.11;100.00;96924.66;5005488;28;20047;-49
2020/12/20 00:56:47;;;;;;;;;;;;;;;-0.13;100.00;96928.25;5040602;28;20322;-50
2020/12/20 00:59:15;;;;;;;;;;;;;;;-0.19;100.00;96923.34;5026406;28;20417;-48
2020/12/20 01:01:42;;;;;;;;;;;;;;;-0.31;100.00;96922.97;4993085;28;19984;-50
2020/12/20 01:04:09;;;;;;;;;;;;;;;-0.30;100.00;96926.41;5030442;28;20444;-50
2020/12/20 01:06:36;;;;;;;;;;;;;;;-0.28;100.00;96919.38;4989783;28;19957;-52
2020/12/20 01:09:16;;;;;;;;;;;;;;;-0.26;100.00;96925.34;5037396;28;19987;-52
2020/12/20 01:11:44;;;;;;;;;;;;;;;-0.34;100.00;96930.88;5010130;28;19966;-52
2020/12/20 01:14:12;;;;;;;;;;;;;;;-0.37;100.00;96927.56;5015284;28;19974;-50
2020/12/20 01:16:46;;;;;;;;;;;;;;;-0.41;100.00;96934.63;4996428;28;20008;-49
2020/12/20 01:19:13;;;;;;;;;;;;;;;-0.49;100.00;96922.00;5019682;28;19961;-52
2020/12/20 01:21:40;;;;;;;;;;;;;;;-0.45;100.00;96917.50;4998125;28;20028;-52
2020/12/20 01:24:07;;;;;;;;;;;;;;;-0.48;100.00;96915.09;5038026;28;20057;-49
2020/12/20 01:26:34;;;;;;;;;;;;;;;-0.43;100.00;96920.91;4996573;28;19958;-51
2020/12/20 01:29:02;;;;;;;;;;;;;;;-0.47;100.00;96918.50;5049254;28;19994;-48
2020/12/20 01:31:29;;;;;;;;;;;;;;;-0.53;100.00;96925.63;4985359;28;20441;-49
2020/12/20 01:34:12;;;;;;;;;;;;;;;-0.40;100.00;96938.06;5037490;28;20463;-52
2020/12/20 01:36:42;;;;;;;;;;;;;;;-0.33;100.00;96934.31;4975644;28;19956;-50
2020/12/20 01:39:11;;;;;;;;;;;;;;;-0.34;100.00;96932.63;5040164;28;20037;-49
2020/12/20 01:41:38;;;;;;;;;;;;;;;-0.49;100.00;96936.69;4990742;28;19954;-53
2020/12/20 01:44:09;;;;;;;;;;;;;;;-0.45;100.00;96942.59;5021257;28;19964;-50
2020/12/20 01:46:42;;;;;;;;;;;;;;;-0.30;100.00;96942.78;5006246;28;19956;-50
2020/12/20 01:49:12;;;;;;;;;;;;;;;-0.32;100.00;96938.56;5039450;28;19962;-48
2020/12/20 01:51:39;;;;;;;;;;;;;;;-0.35;100.00;96943.88;5005715;28;20254;-49
2020/12/20 01:54:12;;;;;;;;;;;;;;;-0.39;100.00;96937.16;5039298;28;20325;-48
2020/12/20 01:56:50;;;;;;;;;;;;;;;-0.37;100.00;96932.75;4996769;28;19941;-51
2020/12/20 01:59:25;;;;;;;;;;;;;;;-0.48;100.00;96925.44;5024736;28;19956;-50
2020/12/20 02:01:59;;;;;;;;;;;;;;;-0.45;100.00;96916.69;5007645;28;19957;-53
2020/12/20 02:04:31;;;;;;;;;;;;;;;-0.35;100.00;96913.63;5025401;28;20051;-52
2020/12/20 02:06:59;;;;;;;;;;;;;;;-0.35;100.00;96916.22;5015778;28;20050;-52
2020/12/20 02:09:26;;;;;;;;;;;;;;;-0.30;100.00;96916.88;5018983;28;20057;-52
2020/12/20 02:11:53;;;;;;;;;;;;;;;-0.23;100.00;96919.19;5028565;28;19988;-49
2020/12/20 02:14:22;;;;;;;;;;;;;;;-0.24;100.00;96908.00;4976604;28;19955;-50
2020/12/20 02:17:01;;;;;;;;;;;;;;;-0.25;100.00;96907.13;5044714;28;19963;-49
2020/12/20 02:19:34;;;;;;;;;;;;;;;-0.40;100.00;96904.38;4992644;28;20005;-48
2020/12/20 02:22:20;;;;;;;;;;;;;;;-0.33;100.00;96913.56;5041006;28;19970;-52
2020/12/20 02:24:48;;;;;;;;;;;;;;;-0.19;100.00;96913.81;4991677;28;19965;-50
2020/12/20 02:27:35;;;;;;;;;;;;;;;-0.33;100.00;96921.34;5039083;28;20507;-48
2020/12/20 02:30:03;;;;;;;;;;;;;;;-0.48;100.00;96915.09;4983164;28;19962;-48
2020/12/20 02:32:30;;;;;;;;;;;;;;;-0.47;100.00;96911.56;5017826;28;20554;-48
2020/12/20 02:34:57;;;;;;;;;;;;;;;-0.56;100.00;96899.00;4983060;28;19959;-48
2020/12/20 02:37:24;;;;;;;;;;;;;;;-0.46;100.00;96899.47;5034681;28;19964;-49
2020/12/20 02:39:57;;;;;;;;;;;;;;;-0.34;100.00;96899.78;5009428;28;20077;-48
2020/12/20 02:42:26;;;;;;;;;;;;;;;-0.36;100.00;96904.16;5024791;28;19967;-48
2020/12/20 02:44:56;;;;;;;;;;;;;;;-0.46;100.00;96894.28;4982238;28;19958;-48
2020/12/20 02:47:22;;;;;;;;;;;;;;;-0.54;100.00;96892.03;5026445;28;19955;-48
2020/12/20 02:49:50;;;;;;;;;;;;;;;-0.54;100.00;96895.47;4984533;28;19971;-48
2020/12/20 02:52:29;;;;;;;;;;;;;;;-0.36;100.00;96896.41;5044946;28;19964;-49
2020/12/20 02:54:56;;;;;;;;;;;;;;;-0.36;100.00;96888.63;5009001;28;20014;-49
2020/12/20 02:57:34;;;;;;;;;;;;;;;-0.43;100.00;96876.84;5027514;28;19961;-48
2020/12/20 03:00:26;;;;;;;;;;;;;;;-0.52;100.00;96883.28;4997725;28;20004;-47
2020/12/20 03:02:55;;;;;;;;;;;;;;;-0.53;100.00;96888.53;5024568;28;19965;-54
2020/12/20 03:05:22;;;;;;;;;;;;;;;-0.45;100.00;96881.25;5004509;28;20072;-54
2020/12/20 03:07:54;;;;;;;;;;;;;;;-0.26;100.00;96887.31;5028500;28;19962;-53
2020/12/20 03:10:24;;;;;;;;;;;;;;;-0.35;100.00;96886.88;4988373;28;20019;-50
2020/12/20 03:12:52;;;;;;;;;;;;;;;-0.39;100.00;96883.56;5026605;28;19951;-49
2020/12/20 03:15:21;;;;;;;;;;;;;;;-0.33;100.00;96885.06;5010368;28;19974;-51
2020/12/20 03:17:48;;;;;;;;;;;;;;;-0.39;100.00;96878.41;5046214;28;19946;-48
2020/12/20 03:20:16;;;;;;;;;;;;;;;-0.37;100.00;96884.38;4992536;28;19960;-50
2020/12/20 03:22:45;;;;;;;;;;;;;;;-0.32;100.00;96885.00;5042063;28;20452;-51
2020/12/20 03:25:42;;;;;;;;;;;;;;;-0.27;100.00;96890.81;4985138;28;19963;-54
2020/12/20 03:28:35;;;;;;;;;;;;;;;-0.28;100.00;96893.47;5025644;28;20034;-49
2020/12/20 03:31:23;;;;;;;;;;;;;;;-0.39;100.00;96883.56;5007663;28;19970;-50
2020/12/20 03:34:08;;;;;;;;;;;;;;;-0.50;100.00;96885.81;5027242;28;19976;-48
2020/12/20 03:36:43;;;;;;;;;;;;;;;-0.50;100.00;96889.22;4992231;28;19957;-48
2020/12/20 03:39:12;;;;;;;;;;;;;;;-0.53;100.00;96885.94;5029197;28;19991;-48
2020/12/20 03:41:40;;;;;;;;;;;;;;;-0.59;100.00;96878.41;5005579;28;19944;-51
2020/12/20 03:44:12;;;;;;;;;;;;;;;-0.60;100.00;96874.16;5025077;28;19971;-50
2020/12/20 03:46:39;;;;;;;;;;;;;;;-0.53;100.00;96872.97;4989545;28;19981;-49
2020/12/20 03:49:06;;;;;;;;;;;;;;;-0.54;100.00;96866.13;5022345;28;19969;-50
2020/12/20 03:51:33;;;;;;;;;;;;;;;-0.45;100.00;96868.28;5008361;28;20433;-50
2020/12/20 03:54:03;;;;;;;;;;;;;;;-0.37;100.00;96871.41;5039992;28;19962;-48
2020/12/20 03:56:30;;;;;;;;;;;;;;;-0.31;100.00;96878.91;5005567;28;19955;-51
2020/12/20 03:59:06;;;;;;;;;;;;;;;-0.31;100.00;96873.75;5019949;28;19966;-49
2020/12/20 04:01:33;;;;;;;;;;;;;;;-0.36;100.00;96869.66;4988099;28;19959;-51
2020/12/20 04:04:00;;;;;;;;;;;;;;;-0.47;100.00;96867.53;5012060;28;20051;-48
2020/12/20 04:06:27;;;;;;;;;;;;;;;-0.64;100.00;96868.28;5025150;28;19962;-47
2020/12/20 04:08:54;;;;;;;;;;;;;;;-0.44;100.00;96874.34;4998259;28;19959;-51
2020/12/20 04:11:45;;;;;;;;;;;;;;;-0.61;100.00;96870.72;5038494;28;19960;-48
2020/12/20 04:14:15;;;;;;;;;;;;;;;-0.64;100.00;96860.50;5022618;28;19967;-49
2020/12/20 04:16:42;;;;;;;;;;;;;;;-0.59;100.00;96868.91;5025048;28;19956;-50
2020/12/20 04:19:09;;;;;;;;;;;;;;;-0.37;100.00;96880.94;4990543;28;20007;-48
2020/12/20 04:21:44;;;;;;;;;;;;;;;-0.46;100.00;96873.56;5032533;28;20006;-48
2020/12/20 04:24:22;;;;;;;;;;;;;;;-0.32;100.00;96877.22;5010465;28;20436;-50
2020/12/20 04:26:50;;;;;;;;;;;;;;;-0.52;100.00;96887.59;5028003;28;19942;-49
2020/12/20 04:29:27;;;;;;;;;;;;;;;-0.64;100.00;96881.22;4993601;28;19968;-49
2020/12/20 04:32:01;;;;;;;;;;;;;;;-0.56;100.00;96886.06;5042287;28;19953;-48
2020/12/20 04:34:28;;;;;;;;;;;;;;;-0.61;100.00;96872.47;4983492;28;19963;-49
2020/12/20 04:36:56;;;;;;;;;;;;;;;-0.60;100.00;96876.75;5019046;28;20053;-50
2020/12/20 04:39:54;;;;;;;;;;;;;;;-0.58;100.00;96877.53;4980777;28;19964;-50
2020/12/20 04:42:29;;;;;;;;;;;;;;;-0.58;100.00;96872.34;5045454;28;19970;-49
2020/12/20 04:44:59;;;;;;;;;;;;;;;-0.68;100.00;96871.06;4994041;28;20170;-48
2020/12/20 04:47:30;;;;;;;;;;;;;;;-0.59;100.00;96873.25;5023552;28;20001;-48
2020/12/20 04:49:57;;;;;;;;;;;;;;;-0.59;100.00;96871.47;4983704;28;20072;-54
2020/12/20 04:52:29;;;;;;;;;;;;;;;-0.61;100.00;96869.91;5025004;28;20309;-53
2020/12/20 04:54:57;;;;;;;;;;;;;;;-0.53;100.00;96881.59;4991029;28;20367;-54
2020/12/20 04:57:47;;;;;;;;;;;;;;;-0.58;100.00;96880.97;5046505;28;19960;-49
2020/12/20 05:00:19;;;;;;;;;;;;;;;-0.43;100.00;96889.81;4985317;28;20315;-54
2020/12/20 05:02:46;;;;;;;;;;;;;;;-0.69;100.00;96892.66;5043558;28;20040;-48
2020/12/20 05:05:15;;;;;;;;;;;;;;;-0.68;100.00;96886.59;5017640;28;20460;-49
2020/12/20 05:07:42;;;;;;;;;;;;;;;-0.76;100.00;96882.59;5031386;28;19960;-52
2020/12/20 05:10:10;;;;;;;;;;;;;;;-0.70;100.00;96885.81;4992078;28;20016;-48
2020/12/20 05:12:43;;;;;;;;;;;;;;;-0.69;100.00;96883.16;5040693;28;20522;-53
2020/12/20 05:15:20;;;;;;;;;;;;;;;-0.65;100.00;96884.72;4989923;28;20025;-50
2020/12/20 05:18:03;;;;;;;;;;;;;;;-0.70;100.00;96876.28;5046366;28;19945;-48
2020/12/20 05:20:34;;;;;;;;;;;;;;;-0.79;100.00;96885.31;5011953;28;20612;-50
2020/12/20 05:23:03;;;;;;;;;;;;;;;-0.84;100.00;96873.44;5032035;28;19956;-52
2020/12/20 05:25:30;;;;;;;;;;;;;;;-0.77;100.00;96872.28;4991184;28;20493;-48
2020/12/20 05:28:07;;;;;;;;;;;;;;;-0.74;100.00;96878.16;5025790;28;20113;-51
2020/12/20 05:30:38;;;;;;;;;;;;;;;-0.81;100.00;96876.75;4994078;28;19966;-48
2020/12/20 05:33:26;;;;;;;;;;;;;;;-0.89;100.00;96875.41;4990867;28;20455;-52
2020/12/20 05:35:59;;;;;;;;;;;;;;;-0.79;100.00;96874.09;4987282;28;19967;-50
2020/12/20 05:38:26;;;;;;;;;;;;;;;-0.75;100.00;96881.69;5022555;28;19985;-49
2020/12/20 05:40:53;;;;;;;;;;;;;;;-0.68;100.00;96879.66;4989693;28;20051;-50
2020/12/20 05:43:22;;;;;;;;;;;;;;;-0.73;100.00;96881.59;5040004;28;19989;-49
2020/12/20 05:45:49;;;;;;;;;;;;;;;-0.74;100.00;96885.09;4995118;28;22374;-48
2020/12/20 05:48:31;;;;;;;;;;;;;;;-0.68;100.00;96887.44;5023291;28;19954;-54
2020/12/20 05:51:07;;;;;;;;;;;;;;;-0.92;100.00;96885.88;5006503;28;20057;-53
2020/12/20 05:53:34;;;;;;;;;;;;;;;-0.69;100.00;96884.91;5042799;28;19958;-52
2020/12/20 05:56:02;;;;;;;;;;;;;;;-0.67;100.00;96889.13;5010709;28;20028;-49
2020/12/20 05:58:29;;;;;;;;;;;;;;;-0.72;100.00;96891.06;5041644;28;19955;-53
2020/12/20 06:00:58;;;;;;;;;;;;;;;-0.81;100.00;96886.28;5039257;28;20378;-51
2020/12/20 06:03:24;;;;;;;;;;;;;;;-0.67;100.00;96883.09;5004189;28;20452;-52
2020/12/20 06:05:51;;;;;;;;;;;;;;;-0.75;100.00;96886.84;5038902;28;20052;-48
2020/12/20 06:08:18;;;;;;;;;;;;;;;-0.85;100.00;96890.75;4998015;28;20624;-50
2020/12/20 06:10:47;;;;;;;;;;;;;;;-0.91;100.00;96895.31;5041080;28;19966;-49
2020/12/20 06:13:17;;;;;;;;;;;;;;;-0.81;100.00;96889.69;4988016;28;19960;-48
2020/12/20 06:15:45;;;;;;;;;;;;;;;-0.77;100.00;96890.41;5042854;28;19961;-49
2020/12/20 06:18:13;;;;;;;;;;;;;;;-0.60;100.00;96882.75;5009706;28;19956;-48
2020/12/20 06:20:50;;;;;;;;;;;;;;;-0.79;100.00;96887.03;5037215;28;20169;-52
2020/12/20 06:23:17;;;;;;;;;;;;;;;-0.90;100.00;96882.31;5007203;28;20068;-50
2020/12/20 06:25:45;;;;;;;;;;;;;;;-0.88;100.00;96893.44;5042238;28;19957;-49
2020/12/20 06:28:14;;;;;;;;;;;;;;;-1.01;100.00;96881.91;5003514;28;19964;-50
2020/12/20 06:30:40;;;;;;;;;;;;;;;-0.91;100.00;96878.03;5046873;28;20510;-48
2020/12/20 06:33:08;;;;;;;;;;;;;;;-0.86;100.00;96877.84;4998112;28;20456;-48
2020/12/20 06:35:35;;;;;;;;;;;;;;;-0.76;100.00;96876.53;5036675;28;20529;-48
2020/12/20 06:38:03;;;;;;;;;;;;;;;-0.74;100.00;96877.34;5014899;28;19972;-49
2020/12/20 06:40:42;;;;;;;;;;;;;;;-0.93;100.00;96871.25;5045492;28;20011;-48
2020/12/20 06:43:09;;;;;;;;;;;;;;;-1.09;100.00;96890.00;5004627;28;19958;-50
2020/12/20 06:45:40;;;;;;;;;;;;;;;-1.07;100.00;96879.56;5043160;28;19961;-49
2020/12/20 06:48:09;;;;;;;;;;;;;;;-0.99;100.00;96877.53;5017927;28;20319;-49
2020/12/20 06:50:46;;;;;;;;;;;;;;;-1.10;100.00;96882.28;5047290;28;19958;-49
2020/12/20 06:53:14;;;;;;;;;;;;;;;-0.99;100.00;96880.13;5007000;28;20014;-49
2020/12/20 06:55:41;;;;;;;;;;;;;;;-0.97;100.00;96876.53;5046406;28;20020;-52
2020/12/20 06:58:09;;;;;;;;;;;;;;;-1.02;100.00;96872.47;5038403;28;20397;-48
2020/12/20 07:00:42;;;;;;;;;;;;;;;-1.04;100.00;96877.72;4980043;28;19990;-49
2020/12/20 07:03:10;;;;;;;;;;;;;;;-1.02;100.00;96870.72;5043000;28;19942;-48
2020/12/20 07:05:40;;;;;;;;;;;;;;;-0.99;100.00;96882.72;5008450;28;20041;-50
2020/12/20 07:08:08;;;;;;;;;;;;;;;-0.89;100.00;96881.41;5038904;28;20050;-53
2020/12/20 07:10:45;;;;;;;;;;;;;;;-1.02;100.00;96890.59;5012748;28;19963;-48
2020/12/20 07:13:12;;;;;;;;;;;;;;;-0.95;100.00;96879.09;5042814;28;19967;-49
2020/12/20 07:15:49;;;;;;;;;;;;;;;-0.87;100.00;96883.94;5002860;28;19957;-50
2020/12/20 07:18:30;;;;;;;;;;;;;;;-0.85;100.00;96885.56;5044671;28;20003;-49
2020/12/20 07:20:57;;;;;;;;;;;;;;;-0.85;100.00;96888.16;5009310;28;19947;-53
2020/12/20 07:23:25;;;;;;;;;;;;;;;-0.93;100.00;96886.78;5042360;28;19956;-49
2020/12/20 07:25:51;;;;;;;;;;;;;;;-0.84;100.00;96884.66;5009087;28;19993;-50
2020/12/20 07:28:18;;;;;;;;;;;;;;;-0.69;100.00;96892.66;5044301;28;20430;-49
2020/12/20 07:30:45;;;;;;;;;;;;;;;-0.81;100.00;96889.69;5010860;28;20413;-53
2020/12/20 07:33:12;;;;;;;;;;;;;;;-0.77;100.00;96887.81;5041364;28;19943;-48
2020/12/20 09:12:12;;;;;;;;;;;;;;;3.78;67.03;96924.44;5018114;28;20034;-57
2020/12/20 09:14:38;;;;;;;;;;;;;;;2.65;75.82;96933.53;5000952;28;19986;-56
2020/12/20 09:17:05;;;;;;;33.35;15.15;;;;;;;1.25;87.51;96927.00;5006986;28;20541;-59
2020/12/20 09:19:32;;;;;;;27.60;13.50;;;;;;;0.86;95.84;96933.19;4973036;28;20050;-57
2020/12/20 09:21:59;;;;;;;22.80;12.65;;;;;;;-0.17;100.00;96924.09;5016709;28;20512;-58
2020/12/20 09:24:47;;;;;;;24.25;11.52;;;;;;;-0.35;100.00;96925.75;4966650;28;20041;-59
2020/12/20 09:27:14;;;;;;;37.30;23.50;;;;;;;-0.40;100.00;96923.34;5027344;27;20041;-58
2020/12/20 09:29:50;;;;;;;18.80;9.23;;;;;;;-0.56;100.00;96930.94;4970548;28;20049;-58
2020/12/20 09:32:17;;;;;;;28.13;12.15;;;;;;;-0.27;100.00;96927.09;5017117;28;20069;-57
2020/12/20 09:34:44;;;;;;;25.35;13.90;;;;;;;-0.04;100.00;96926.06;4993841;28;20102;-58
2020/12/20 09:37:11;;;;;;;27.00;13.05;;;;;;;0.23;100.00;96933.53;5018329;28;20080;-57
2020/12/20 09:39:57;;;;;;;30.92;13.00;;;;;;;0.03;100.00;96929.22;4984716;28;20132;-58
2020/12/20 09:42:24;;;;;;;25.75;12.35;;;;;;;0.21;100.00;96933.63;5015793;28;20033;-58
2020/12/20 09:44:51;;;;;;;30.88;13.57;;;;;;;0.12;100.00;96921.06;4955045;28;20049;-58
2020/12/20 09:47:18;;;;;;;26.17;12.18;;;;;;;-0.10;100.00;96928.13;5021200;28;20050;-57
2020/12/20 09:49:45;;;;;;;26.27;12.10;;;;;;;0.06;100.00;96925.66;4982638;28;20034;-57
2020/12/20 09:52:13;;;;;;;37.40;20.52;;;;;;;-0.05;100.00;96929.59;5018861;28;20415;-57
2020/12/20 09:55:00;;;;;;;29.95;13.35;;;;;;;-0.05;100.00;96926.16;4989056;28;20053;-56
2020/12/20 09:57:27;;;;;;;30.17;12.90;;;;;;;0.10;100.00;96927.22;5015949;28;20054;-58
2020/12/20 09:59:54;;;;;;;27.35;12.35;;;;;;;0.23;100.00;96929.19;5019381;28;20042;-58
2020/12/20 10:02:21;;;;;;;33.97;15.95;;;;;;;0.10;100.00;96933.22;4977876;28;20594;-57
2020/12/20 10:04:48;;;;;;;26.77;11.80;;;;;;;0.30;100.00;96931.50;5016110;28;20120;-57
2020/12/20 10:07:15;;;;;;;40.13;22.45;;;;;;;0.14;100.00;96931.38;4988565;28;20122;-56
2020/12/20 10:09:42;;;;;;;30.52;13.90;;;;;;;0.16;100.00;96940.75;5041893;28;20053;-59
2020/12/20 10:12:11;;;;;;;32.72;17.58;;;;;;;0.26;100.00;96933.41;5015937;28;20368;-58
2020/12/20 10:14:38;;;;;;;35.63;18.10;;;;;;;0.27;100.00;96947.19;5041606;28;20047;-59
2020/12/20 10:17:05;;;;;;;41.85;24.30;;;;;;;0.33;100.00;96936.56;5001078;28;20138;-57
2020/12/20 10:19:32;;;;;;;29.38;13.93;;;;;;;0.28;100.00;96931.59;5032693;28;20037;-59
2020/12/20 10:21:58;;;;;;;36.95;20.48;;;;;;;0.39;100.00;96939.72;4986077;28;20139;-60
2020/12/20 10:24:26;;;;;;;33.13;14.90;;;;;;;0.59;100.00;96937.94;5025519;28;20485;-62
2020/12/20 10:26:52;;;;;;;26.20;12.18;;;;;;;0.37;100.00;96948.47;4993792;28;20120;-60
2020/12/20 10:29:24;;;;;;;28.17;13.20;;;;;;;0.54;100.00;96945.09;5024812;28;20073;-58
2020/12/20 10:31:51;;;;;;;32.22;14.63;;;;;;;0.35;100.00;96948.53;4979114;28;21872;-59
2020/12/20 10:34:17;;;;;;;63.50;36.28;;;;;;;0.43;100.00;96943.84;5004384;28;20104;-58
2020/12/20 10:36:44;;;;;;;31.85;14.20;;;;;;;0.29;100.00;96935.84;4960055;28;20126;-58
2020/12/20 10:39:11;;;;;;;29.38;13.27;;;;;;;0.57;100.00;96932.81;5030401;28;20099;-58
2020/12/20 10:41:39;;;;;;;30.88;14.70;;;;;;;0.64;100.00;96931.63;5031771;28;20041;-57
2020/12/20 10:44:07;;;;;;;34.70;14.02;;;;;;;0.43;100.00;96936.06;5016474;28;20056;-59
2020/12/20 10:46:35;;;;;;;32.80;13.73;;;;;;;0.37;100.00;96940.69;5014279;28;20682;-59
2020/12/20 10:49:04;;;;;;;32.17;13.85;;;;;;;0.65;100.00;96935.03;4982809;28;20038;-56
2020/12/20 10:51:31;;;;;;;32.97;12.98;;;;;;;0.68;100.00;96927.13;5027756;28;20049;-58
2020/12/20 10:53:58;;;;;;;34.38;14.38;;;;;;;0.81;100.00;96943.81;5002361;28;20049;-59
2020/12/20 10:56:25;;;;;;;28.20;12.68;;;;;;;0.58;100.00;96931.91;5029284;28;20509;-59
2020/12/20 10:58:52;;;;;;;28.27;13.30;;;;;;;0.67;100.00;96926.28;4985243;28;20098;-58
2020/12/20 11:01:20;;;;;;;27.70;12.40;;;;;;;1.00;100.00;96933.38;5018427;28;20463;-59
2020/12/20 11:03:48;;;;;;;26.55;11.98;;;;;;;0.63;100.00;96929.09;4969683;28;20412;-60
2020/12/20 11:06:18;;;;;;;28.27;13.63;;;;;;;0.87;100.00;96925.34;5005206;28;20104;-60
2020/12/20 11:08:45;;;;;;;;;;;;;;;1.04;100.00;96927.13;4995589;28;20044;-60
2020/12/20 11:11:13;;;;;;;27.92;13.70;;;;;;;0.81;100.00;96923.03;5009551;28;20354;-59
2020/12/20 11:13:42;;;;;;;29.10;14.65;;;;;;;0.68;100.00;96917.56;4992751;28;20099;-59
2020/12/20 11:16:16;;;;;;;30.33;14.70;;;;;;;0.52;100.00;96918.38;5026620;28;20531;-59
2020/12/20 11:18:45;;;;;;;34.83;14.82;;;;;;;0.69;100.00;96905.47;4987781;28;20041;-60
2020/12/20 11:21:14;;;;;;;33.58;14.68;;;;;;;0.67;100.00;96908.13;5025553;28;20119;-59
2020/12/20 11:23:42;;;;;;;35.80;15.95;;;;;;;0.80;100.00;96907.53;4987571;28;20048;-61
2020/12/20 11:26:11;;;;;;;29.83;14.38;;;;;;;0.78;100.00;96911.94;5009331;28;20042;-59
2020/12/20 11:28:39;;;;;;;32.58;15.27;;;;;;;0.75;100.00;96914.69;4983095;28;20153;-59
2020/12/20 11:31:06;;;;;;;25.17;11.30;;;;;;;0.54;100.00;96913.97;5023411;28;20068;-60
2020/12/20 11:33:32;;;;;;;24.00;12.20;;;;;;;0.57;100.00;96903.44;5016439;28;20438;-59
2020/12/20 11:36:00;;;;;;;29.70;14.68;;;;;;;0.41;100.00;96898.13;4989704;28;20057;-59
2020/12/20 11:38:27;;;;;;;26.85;13.88;;;;;;;0.37;100.00;96905.19;5005864;28;20129;-58
2020/12/20 11:40:54;;;;;;;29.17;13.90;;;;;;;0.58;100.00;96915.50;4979032;28;20053;-59
2020/12/20 11:43:21;;;;;;;26.20;12.65;;;;;;;0.57;100.00;96912.06;5025639;28;20073;-60
2020/12/20 11:45:48;;;;;;;30.38;13.95;;;;;;;0.40;100.00;96891.25;4992219;28;20046;-60
2020/12/20 11:48:16;;;;;;;39.65;17.33;;;;;;;0.36;100.00;96893.16;5020833;28;20436;-58
2020/12/20 11:50:43;;;;;;;31.30;14.00;;;;;;;0.44;100.00;96887.59;4977948;28;20132;-59
2020/12/20 11:53:11;;;;;;;31.17;14.38;;;;;;;0.45;100.00;96878.91;5023389;28;20045;-60
2020/12/20 11:55:40;;;;;;;35.70;15.93;;;;;;;0.62;100.00;96875.50;4988919;28;20069;-60
2020/12/20 11:58:11;;;;;;;33.58;14.77;;;;;;;0.79;100.00;96891.13;5023048;28;20091;-59
2020/12/20 12:00:41;;;;;;;29.98;13.98;;;;;;;0.77;100.00;96885.16;4989733;28;20104;-60
2020/12/20 12:03:08;;;;;;;26.80;13.55;;;;;;;0.74;100.00;96887.06;5025064;28;20461;-60
2020/12/20 12:05:37;;;;;;;36.17;15.02;;;;;;;0.76;100.00;96890.41;4997028;28;20045;-59
2020/12/20 12:08:05;;;;;;;34.67;15.02;;;;;;;0.76;100.00;96898.19;5027096;28;20057;-59
2020/12/20 12:10:33;;;;;;;33.67;14.55;;;;;;;0.65;100.00;96894.38;4994845;28;20107;-59
2020/12/20 12:13:01;;;;;;;31.73;15.77;;;;;;;0.79;100.00;96887.66;5021565;28;20479;-59
2020/12/20 12:15:28;;;;;;;29.85;14.32;;;;;;;0.55;100.00;96885.38;4987359;28;20125;-60
2020/12/20 12:17:56;;;;;;;21.08;11.40;;;;;;;0.18;100.00;96884.47;5032870;28;20396;-58
2020/12/20 12:20:23;;;;;;;27.27;14.48;;;;;;;0.39;100.00;96885.22;5020294;28;20120;-59
2020/12/20 12:23:08;;;;;;;34.42;15.43;;;;;;;0.47;100.00;96877.91;5010849;28;21528;-59
2020/12/20 12:25:35;;;;;;;31.13;13.20;;;;;;;0.31;100.00;96873.50;5019220;28;20045;-59
2020/12/20 12:28:04;;;;;;;41.30;20.65;;;;;;;0.16;100.00;96878.50;4991788;28;20042;-60
2020/12/20 12:30:31;;;;;;;32.80;16.10;;;;;;;0.27;100.00;96870.22;5024770;28;20080;-57
2020/12/20 12:32:58;;;;;;;26.05;12.63;;;;;;;0.26;100.00;96875.50;4967917;28;20056;-57
2020/12/20 12:35:25;;;;;;;30.88;14.48;;;;;;;0.32;100.00;96872.63;5017752;28;20065;-60
2020/12/20 12:37:52;;;;;;;37.15;15.32;;;;;;;0.25;100.00;96879.00;4980579;28;20053;-60
2020/12/20 12:40:21;;;;;;;31.73;14.05;;;;;;;0.05;100.00;96874.72;5026709;28;20149;-60
2020/12/20 12:42:48;;;;;;;33.58;14.10;;;;;;;0.15;100.00;96876.84;4990609;28;20052;-59
2020/12/20 12:45:17;;;;;;;38.00;15.23;;;;;;;0.10;100.00;96876.19;5002731;28;20108;-59
2020/12/20 12:47:44;;;;;;;34.78;14.82;;;;;;;0.14;100.00;96872.56;5000792;28;20038;-58
2020/12/20 12:50:12;;;;;;;33.35;15.35;;;;;;;0.10;100.00;96873.59;5025609;28;20072;-59
2020/12/20 12:52:39;;;;;;;36.25;15.95;;;;;;;0.09;100.00;96882.28;4976457;28;20125;-60
2020/12/20 12:55:06;;;;;;;53.50;17.77;;;;;;;0.07;100.00;96885.84;5025051;28;20571;-60
2020/12/20 12:57:34;;;;;;;43.15;17.17;;;;;;;0.07;100.00;96889.31;4986346;28;20048;-58
2020/12/20 13:00:02;;;;;;;34.85;14.90;;;;;;;0.19;100.00;96885.31;5025388;28;20127;-61
2020/12/20 13:02:32;;;;;;;32.95;14.23;;;;;;;0.19;100.00;96880.13;4987879;28;20060;-60
2020/12/20 13:05:00;;;;;;;34.10;13.35;;;;;;;0.18;100.00;96878.44;5010900;28;20054;-58
2020/12/20 13:07:27;;;;;;;37.53;14.43;;;;;;;0.23;100.00;96882.50;4968190;28;20046;-59
2020/12/20 13:09:54;;;;;;;33.72;13.82;;;;;;;0.32;100.00;96885.59;5002080;28;20099;-58
2020/12/20 13:12:21;;;;;;;33.03;13.98;;;;;;;0.42;100.00;96892.03;5010037;28;20120;-59
2020/12/20 13:14:48;;;;;;;27.38;11.10;;;;;;;0.21;100.00;96884.34;4988380;28;20119;-61
2020/12/20 13:17:15;;;;;;;38.50;15.77;;;;;;;0.14;100.00;96895.91;5019511;28;20042;-60
2020/12/20 13:19:43;;;;;;;39.33;15.90;;;;;;;0.17;100.00;96890.59;4993313;28;20052;-59
2020/12/20 13:22:10;;;;;;;35.75;15.25;;;;;;;0.20;100.00;96895.59;5027853;28;20041;-59
2020/12/20 13:24:38;;;;;;;30.55;12.98;;;;;;;0.05;100.00;96885.94;4979856;28;20050;-60
2020/12/20 13:27:12;;;;;;;47.50;21.67;;;;;;;0.08;100.00;96884.97;5020399;28;20037;-59
2020/12/20 13:29:40;;;;;;;33.08;15.90;;;;;;;0.00;100.00;96872.38;4981769;28;20029;-56
2020/12/20 13:32:06;;;;;;;34.58;14.73;;;;;;;-0.08;100.00;96880.47;5028383;28;20056;-59
2020/12/20 13:34:33;;;;;;;32.70;14.95;;;;;;;-0.01;100.00;96881.88;4986673;28;20452;-60
2020/12/20 13:37:01;;;;;;;41.70;18.05;;;;;;;0.08;100.00;96893.59;5013982;28;20042;-59
2020/12/20 13:39:29;;;;;;;35.25;15.18;;;;;;;0.14;100.00;96898.50;4976406;28;20520;-58
2020/12/20 13:41:56;;;;;;;37.67;17.02;;;;;;;0.10;100.00;96899.53;5004720;28;20068;-59
2020/12/20 13:44:22;;;;;;;38.78;17.02;;;;;;;0.03;100.00;96898.13;4990131;28;20096;-59
2020/12/20 13:46:50;;;;;;;48.63;24.75;;;;;;;-0.08;100.00;96903.78;5025544;28;20123;-59
2020/12/20 13:49:17;;;;;;;43.15;19.25;;;;;;;-0.20;100.00;96908.69;4985159;28;20096;-59
2020/12/20 13:51:55;;;;;;;42.25;20.95;;;;;;;-0.15;100.00;96909.31;5023998;28;20518;-57